Time;durP1;ratioP1;P1;durP2;ratioP2;P2;SDS_P1;SDS_P2;PMS_P1;PMS_P2;Temp;Humidity;BMP_temperature;BMP_pressure;BME280_temperature;BME280_humidity;BME280_pressure;Samples;Min_cycle;Max_cycle;Signal;HPM_P1;HPM_P2
2022/06/27 00:01:00;;;;;;;7.90;3.70;;;;;;;22.86;52.10;100662.66;105846;1279;139542;-88
2022/06/27 00:03:29;;;;;;;6.50;3.70;;;;;;;22.70;52.68;100664.55;105979;1277;107454;-89
2022/06/27 00:05:57;;;;;;;7.70;3.90;;;;;;;22.55;53.38;100665.96;106171;1276;98364;-88
2022/06/27 00:08:27;;;;;;;6.50;4.20;;;;;;;22.41;53.63;100663.73;105954;1276;137434;-89
2022/06/27 00:10:55;;;;;;;6.60;3.60;;;;;;;22.29;54.07;100659.52;105935;1276;94828;-89
2022/06/27 00:13:23;;;;;;;6.50;3.70;;;;;;;22.19;54.19;100659.46;105798;1276;139151;-89
2022/06/27 00:15:53;;;;;;;7.00;3.80;;;;;;;22.10;54.62;100664.58;105918;1276;106914;-88
2022/06/27 00:18:21;;;;;;;7.70;3.90;;;;;;;22.02;54.48;100667.70;106090;1276;99145;-88
2022/06/27 00:20:49;;;;;;;8.30;3.90;;;;;;;21.97;54.54;100669.72;105664;1277;138232;-88
2022/06/27 00:23:19;;;;;;;6.90;4.10;;;;;;;21.92;54.84;100670.35;105744;1276;94293;-88
2022/06/27 00:25:47;;;;;;;8.70;3.60;;;;;;;21.88;55.30;100669.22;106028;1276;138782;-89
2022/06/27 00:28:18;;;;;;;6.70;4.10;;;;;;;21.83;55.74;100667.55;107594;1276;106079;-90
2022/06/27 00:30:46;;;;;;;5.80;3.70;;;;;;;21.79;55.41;100667.88;107328;1276;137720;-89
2022/06/27 00:33:15;;;;;;;7.40;4.00;;;;;;;21.77;55.44;100667.12;107591;1276;105442;-89
2022/06/27 00:35:45;;;;;;;7.50;3.80;;;;;;;21.75;55.42;100669.17;107467;1277;93635;-90
2022/06/27 00:38:12;;;;;;;6.30;3.80;;;;;;;21.74;55.65;100670.89;106751;1277;138247;-89
2022/06/27 00:40:41;;;;;;;7.00;3.80;;;;;;;21.73;55.47;100671.90;106111;1276;109153;-90
2022/06/27 00:43:10;;;;;;;6.60;4.10;;;;;;;21.73;55.52;100671.02;105909;1276;138620;-89
2022/06/27 00:45:40;;;;;;;6.80;3.90;;;;;;;21.73;55.59;100670.79;105865;1279;106463;-89
2022/06/27 00:48:08;;;;;;;7.60;3.70;;;;;;;21.71;55.79;100672.75;105988;1277;93790;-89
2022/06/27 00:50:36;;;;;;;6.90;3.80;;;;;;;21.67;55.84;100671.02;106043;1276;152371;-88
2022/06/27 00:53:04;;;;;;;7.30;3.90;;;;;;;21.64;56.09;100675.39;106062;1276;106041;-89
2022/06/27 00:55:33;;;;;;;7.40;4.10;;;;;;;21.61;56.19;100677.06;105889;1276;139908;-89
2022/06/27 00:58:02;;;;;;;7.40;4.00;;;;;;;21.57;56.31;100677.31;106040;1276;107951;-89
2022/06/27 01:00:31;;;;;;;6.70;4.20;;;;;;;21.53;56.89;100675.91;106140;1276;94215;-90
2022/06/27 01:02:59;;;;;;;7.90;5.20;;;;;;;21.48;56.69;100676.63;105926;1276;138284;-90
2022/06/27 01:05:27;;;;;;;8.00;4.90;;;;;;;21.45;56.90;100678.43;106201;1276;107854;-90
2022/06/27 01:07:55;;;;;;;7.60;4.30;;;;;;;21.43;56.91;100678.60;106044;1276;139042;-90
2022/06/27 01:10:23;;;;;;;7.00;4.10;;;;;;;21.38;57.25;100676.53;106087;1276;109512;-90
2022/06/27 01:12:52;;;;;;;7.80;4.50;;;;;;;21.33;57.48;100677.43;105996;1276;138763;-90
2022/06/27 01:15:21;;;;;;;6.70;3.90;;;;;;;21.30;57.97;100675.31;106231;1276;94320;-90
2022/06/27 01:17:50;;;;;;;7.40;4.40;;;;;;;21.25;58.07;100672.02;106314;1276;107483;-90
2022/06/27 01:20:18;;;;;;;8.80;4.50;;;;;;;21.19;58.18;100672.90;106163;1276;139645;-90
2022/06/27 01:22:48;;;;;;;7.70;4.90;;;;;;;21.16;58.24;100670.63;106489;1276;108883;-90
2022/06/27 01:25:20;;;;;;;7.90;4.40;;;;;;;21.13;58.23;100673.01;106096;1276;138775;-90
2022/06/27 01:27:48;;;;;;;7.70;4.50;;;;;;;21.10;58.77;100673.75;105900;1277;94336;-89
2022/06/27 01:30:21;;;;;;;7.50;4.50;;;;;;;21.05;58.88;100672.02;106101;1276;105888;-90
2022/06/27 01:32:52;;;;;;;7.50;4.70;;;;;;;21.03;58.88;100670.89;105795;1277;137786;-89
2022/06/27 01:35:25;;;;;;;7.40;4.20;;;;;;;21.00;58.83;100669.84;106203;1277;109290;-90
2022/06/27 01:37:54;;;;;;;7.30;5.10;;;;;;;20.95;58.83;100669.27;105962;1276;138450;-90
2022/06/27 01:40:23;;;;;;;7.10;4.50;;;;;;;20.94;58.91;100663.17;105897;1276;94076;-90
2022/06/27 01:42:54;;;;;;;7.60;4.30;;;;;;;20.93;59.21;100662.00;106154;1276;137891;-89
2022/06/27 01:45:23;;;;;;;8.20;4.50;;;;;;;20.89;59.51;100660.25;106106;1276;98339;-90
2022/06/27 01:47:54;;;;;;;6.70;4.70;;;;;;;20.87;59.61;100660.75;106229;1276;106447;-90
2022/06/27 01:50:29;;;;;;;9.20;5.50;;;;;;;20.85;59.51;100658.21;106005;1276;139715;-89
2022/06/27 01:53:00;;;;;;;7.20;4.60;;;;;;;20.83;59.49;100656.14;105935;1276;95178;-90
2022/06/27 01:55:29;;;;;;;7.80;5.00;;;;;;;20.82;60.02;100657.50;105977;1277;138222;-89
2022/06/27 01:57:57;;;;;;;9.50;5.10;;;;;;;20.77;59.95;100656.20;106154;1276;98340;-89
2022/06/27 02:00:26;;;;;;;9.20;5.60;;;;;;;20.73;60.10;100659.17;106244;1276;107783;-88
2022/06/27 02:03:00;;;;;;;8.70;5.20;;;;;;;20.69;60.47;100657.36;106129;1276;138482;-89
2022/06/27 02:05:39;;;;;;;8.20;5.50;;;;;;;20.66;60.32;100662.45;106335;1276;94735;-89
2022/06/27 02:08:11;;;;;;;7.50;4.90;;;;;;;20.64;60.51;100662.95;106314;1276;137456;-88
2022/06/27 02:11:05;;;;;;;;;;;;;;;20.62;60.86;100668.54;106344;1276;97093;-88
2022/06/27 02:13:35;;;;;;;;;;;;;;;20.57;60.73;100665.77;105982;1276;124130;-88
2022/06/27 02:16:10;;;;;;;7.60;5.40;;;;;;;20.55;60.67;100665.85;106251;1276;94795;-91
2022/06/27 02:18:40;;;;;;;7.60;5.30;;;;;;;20.55;60.88;100670.01;106276;1276;94340;-88
2022/06/27 02:21:15;;;;;;;7.30;5.00;;;;;;;20.53;60.93;100670.86;106377;1277;108869;-88
2022/06/27 02:23:47;;;;;;;8.90;5.20;;;;;;;20.52;60.88;100672.20;106426;1276;97070;-88
2022/06/27 02:26:23;;;;;;;8.30;4.80;;;;;;;20.51;61.12;100671.13;106011;1277;138799;-89
2022/06/27 02:28:53;;;;;;;7.90;5.50;;;;;;;20.49;61.14;100674.16;106208;1276;95967;-89
2022/06/27 02:31:22;;;;;;;7.70;4.90;;;;;;;20.47;61.52;100675.60;106024;1276;139239;-88
2022/06/27 02:34:13;;;;;;;7.90;5.00;;;;;;;20.44;61.46;100675.95;106417;1276;108566;-89
2022/06/27 02:36:42;;;;;;;7.10;4.90;;;;;;;20.44;61.57;100678.84;106057;1276;139398;-90
2022/06/27 02:39:12;;;;;;;10.00;4.80;;;;;;;20.45;61.59;100676.41;107838;1276;107817;-89
2022/06/27 02:41:47;;;;;;;8.20;4.80;;;;;;;20.47;61.40;100678.84;107749;1276;93072;-90
2022/06/27 02:44:15;;;;;;;9.70;4.90;;;;;;;20.49;61.38;100680.70;107779;1276;139147;-90
2022/06/27 02:46:45;;;;;;;8.70;5.40;;;;;;;20.48;61.56;100681.83;107723;1276;107402;-90
2022/06/27 02:49:14;;;;;;;7.90;5.40;;;;;;;20.47;61.21;100681.90;107660;1277;139241;-89
2022/06/27 02:52:01;;;;;;;7.80;5.00;;;;;;;20.45;61.55;100680.55;107845;1276;107880;-90
2022/06/27 02:54:42;;;;;;;7.80;5.10;;;;;;;20.44;61.61;100685.50;107712;1276;92528;-89
2022/06/27 02:57:43;;;;;;;7.30;4.80;;;;;;;20.44;61.27;100689.10;107793;1276;92068;-89
2022/06/27 03:00:12;;;;;;;8.50;5.30;;;;;;;20.45;61.51;100689.05;107708;1276;106068;-89
2022/06/27 03:02:45;;;;;;;7.80;5.00;;;;;;;20.46;61.48;100689.19;107784;1276;138518;-90
2022/06/27 03:05:25;;;;;;;9.20;4.90;;;;;;;20.48;61.76;100692.46;107520;1276;106807;-89
2022/06/27 03:07:58;;;;;;;8.50;4.90;;;;;;;20.49;61.81;100693.70;107727;1276;138181;-89
2022/06/27 03:10:47;;;;;;;7.20;4.60;;;;;;;20.47;61.51;100693.98;107800;1276;92552;-89
2022/06/27 03:13:16;;;;;;;8.20;4.80;;;;;;;20.48;61.32;100695.91;107708;1276;138856;-90
2022/06/27 03:15:44;;;;;;;9.20;5.60;;;;;;;20.51;61.61;100699.48;107724;1276;96803;-89
2022/06/27 03:18:14;;;;;;;10.30;5.20;;;;;;;20.51;61.86;100705.98;107769;1276;107285;-89
2022/06/27 03:21:42;;;;;;;6.50;4.50;;;;;;;20.53;61.70;100706.74;107038;1284;92280;-89
2022/06/27 03:24:10;;;;;;;7.20;4.00;;;;;;;20.56;61.89;100704.77;106995;1284;92445;-89
2022/06/27 03:27:28;;;;;;;7.90;4.20;;;;;;;20.61;61.74;100703.02;107594;1276;138016;-89
2022/06/27 03:30:16;;;;;;;7.60;4.80;;;;;;;20.63;61.51;100696.55;107773;1276;98298;-89
2022/06/27 03:32:45;;;;;;;8.50;5.30;;;;;;;20.65;61.75;100698.08;107680;1276;138195;-90
2022/06/27 03:35:33;;;;;;;8.50;4.70;;;;;;;20.69;61.05;100700.73;107822;1276;92943;-89
2022/06/27 03:38:07;;;;;;;8.20;5.20;;;;;;;20.73;61.28;100699.02;107664;1276;136662;-89
2022/06/27 03:40:57;;;;;;;8.20;5.50;;;;;;;20.77;61.23;100699.91;107711;1276;108189;-89
2022/06/27 03:43:26;;;;;;;9.50;5.20;;;;;;;20.81;60.97;100700.70;107655;1276;138600;-89
2022/06/27 03:45:56;;;;;;;8.70;5.40;;;;;;;20.85;61.32;100702.97;107708;1276;106734;-89
2022/06/27 03:51:27;;;;;;;9.50;4.90;;;;;;;20.92;61.17;100703.23;107858;1276;92572;-89
2022/06/27 03:53:55;;;;;;;8.80;4.90;;;;;;;20.97;61.55;100703.65;107795;1276;106962;-89
2022/06/27 03:56:24;;;;;;;7.80;4.60;;;;;;;20.98;61.92;100700.69;107639;1277;138889;-89
2022/06/27 03:58:53;;;;;;;8.00;4.40;;;;;;;21.00;61.78;100698.02;107874;1276;107603;-90
2022/06/27 04:01:22;;;;;;;7.40;4.50;;;;;;;21.06;61.71;100699.96;107752;1276;139036;-90
2022/06/27 04:03:51;;;;;;;7.90;4.50;;;;;;;21.12;61.41;100698.31;107897;1276;92189;-90
2022/06/27 04:06:19;;;;;;;7.10;4.20;;;;;;;21.21;61.04;100703.14;107750;1276;104994;-89
2022/06/27 04:08:48;;;;;;;7.20;4.30;;;;;;;21.28;60.39;100705.75;107713;1276;138266;-89
2022/06/27 04:11:17;;;;;;;7.80;4.60;;;;;;;21.35;60.18;100708.34;107783;1277;107463;-89
2022/06/27 04:14:01;;;;;;;8.40;4.60;;;;;;;21.41;60.80;100710.33;107560;1277;138466;-89
2022/06/27 04:16:41;;;;;;;8.70;4.80;;;;;;;21.45;60.07;100704.11;107930;1276;92168;-89
2022/06/27 04:19:22;;;;;;;6.30;4.10;;;;;;;21.49;60.28;100707.25;107682;1276;138227;-89
2022/06/27 04:22:16;;;;;;;7.30;4.00;;;;;;;21.57;59.81;100714.77;107915;1276;98333;-89
2022/06/27 04:25:03;;;;;;;7.10;4.20;;;;;;;21.66;58.76;100712.68;107702;1277;138249;-89
2022/06/27 04:27:47;;;;;;;8.40;4.70;;;;;;;21.78;58.81;100706.61;107782;1277;92944;-89
2022/06/27 04:30:16;;;;;;;7.30;3.90;;;;;;;21.85;58.77;100711.17;107716;1277;92598;-90
2022/06/27 04:33:08;;;;;;;6.20;3.70;;;;;;;21.94;58.71;100709.87;107799;1277;107792;-90
2022/06/27 04:35:42;;;;;;;7.90;4.30;;;;;;;22.01;58.61;100712.59;107743;1276;99901;-89
2022/06/27 04:38:11;;;;;;;8.20;4.20;;;;;;;22.08;58.73;100714.30;107739;1277;138624;-89
2022/06/27 04:40:50;;;;;;;11.30;5.10;;;;;;;22.15;57.86;100716.19;107894;1276;93482;-89
2022/06/27 04:43:19;;;;;;;9.00;4.80;;;;;;;22.22;57.42;100716.92;107704;1277;138231;-88
2022/06/27 04:45:49;;;;;;;7.70;4.70;;;;;;;22.29;57.08;100719.34;107718;1277;107375;-88
2022/06/27 04:48:58;;;;;;;;;;;;;;;22.39;57.22;100718.70;107858;1277;137244;-89
2022/06/27 04:51:27;;;;;;;9.60;4.50;;;;;;;22.43;56.65;100716.27;107843;1276;108615;-89
2022/06/27 04:54:17;;;;;;;9.30;5.30;;;;;;;22.51;56.51;100715.30;107837;1276;92595;-89
2022/06/27 04:56:49;;;;;;;8.30;4.40;;;;;;;22.58;56.68;100717.89;107546;1276;137078;-89
2022/06/27 04:59:20;;;;;;;7.80;4.20;;;;;;;22.66;57.27;100719.61;107790;1277;107334;-89
2022/06/27 05:02:00;;;;;;;8.40;4.40;;;;;;;22.75;57.55;100721.02;107658;1277;138244;-89
2022/06/27 05:04:35;;;;;;;12.90;7.00;;;;;;;22.83;57.26;100721.14;107777;1277;106403;-89
2022/06/27 05:07:28;;;;;;;13.90;7.10;;;;;;;22.92;56.30;100723.02;107708;1276;138402;-90
2022/06/27 05:09:59;;;;;;;10.90;5.80;;;;;;;23.01;56.00;100726.13;107874;1277;92099;-89
2022/06/27 05:13:02;;;;;;;7.80;4.50;;;;;;;23.12;55.69;100725.19;107677;1277;138385;-89
2022/06/27 05:15:30;;;;;;;8.50;4.80;;;;;;;23.19;55.30;100727.06;107919;1276;99448;-89
2022/06/27 05:17:59;;;;;;;9.70;5.10;;;;;;;23.27;55.36;100731.19;107757;1277;107937;-89
2022/06/27 05:20:31;;;;;;;8.20;4.90;;;;;;;23.35;55.39;100733.99;107721;1277;138329;-91
2022/06/27 05:23:37;;;;;;;8.70;5.20;;;;;;;23.46;55.41;100740.42;107933;1276;92104;-90
2022/06/27 05:26:10;;;;;;;7.80;5.00;;;;;;;23.56;54.49;100737.14;107670;1277;138036;-90
2022/06/27 05:28:38;;;;;;;8.70;4.70;;;;;;;23.67;54.67;100736.13;107782;1277;98588;-90
2022/06/27 05:31:12;;;;;;;8.80;4.80;;;;;;;23.77;53.91;100742.30;107612;1277;139416;-90
2022/06/27 05:33:42;;;;;;;6.70;4.40;;;;;;;23.86;53.97;100747.56;107917;1276;92350;-90
2022/06/27 05:36:12;;;;;;;;;;;;;;;23.96;54.02;100749.43;107788;1277;92459;-91
2022/06/27 05:38:40;;;;;;;8.10;4.60;;;;;;;24.05;53.93;100749.28;107742;1274;124347;-90
2022/06/27 05:41:11;;;;;;;7.50;4.00;;;;;;;24.11;53.41;100749.52;107964;1274;98364;-90
2022/06/27 05:43:40;;;;;;;7.00;3.90;;;;;;;24.17;53.02;100754.86;107445;1280;138067;-91
2022/06/27 05:46:13;;;;;;;9.60;4.20;;;;;;;24.26;53.26;100751.79;107640;1277;92564;-90
2022/06/27 05:48:46;;;;;;;7.70;4.10;;;;;;;24.36;53.29;100753.56;107899;1276;91965;-90
2022/06/27 05:51:36;;;;;;;7.00;4.20;;;;;;;24.43;52.76;100754.63;107862;1276;107279;-90
2022/06/27 05:54:06;;;;;;;7.10;4.00;;;;;;;24.47;52.90;100755.58;107601;1277;98594;-89
2022/06/27 05:56:53;;;;;;;8.10;4.20;;;;;;;24.52;52.90;100752.23;107662;1276;137920;-90
2022/06/27 05:59:22;;;;;;;6.70;3.80;;;;;;;24.55;52.44;100747.48;107496;1276;92406;-90
2022/06/27 06:01:52;;;;;;;9.00;4.00;;;;;;;24.61;52.19;100751.27;107578;1276;138398;-90
2022/06/27 06:04:22;;;;;;;5.20;3.10;;;;;;;24.69;53.07;100747.33;107842;1276;107328;-89
2022/06/27 06:06:51;;;;;;;8.90;4.10;;;;;;;24.75;51.60;100751.06;107614;1276;137281;-90
2022/06/27 06:09:19;;;;;;;7.50;3.90;;;;;;;24.80;51.12;100747.93;107485;1277;107924;-89
2022/06/27 06:11:51;;;;;;;9.10;3.50;;;;;;;24.88;51.32;100748.73;107646;1276;92512;-90
2022/06/27 06:14:21;;;;;;;8.60;3.80;;;;;;;24.95;50.65;100749.98;107667;1276;138122;-89
2022/06/27 06:16:53;;;;;;;7.20;3.20;;;;;;;25.01;50.22;100753.86;107845;1276;106737;-89
2022/06/27 06:19:28;;;;;;;7.30;3.20;;;;;;;25.08;49.54;100754.45;107497;1277;137311;-90
2022/06/27 06:21:57;;;;;;;6.80;3.20;;;;;;;25.15;50.02;100762.90;107551;1277;107950;-91
2022/06/27 06:24:30;;;;;;;7.30;3.50;;;;;;;25.24;49.45;100761.23;107589;1276;92336;-90
2022/06/27 06:27:04;;;;;;;7.90;3.30;;;;;;;25.31;49.07;100766.70;107641;1276;139155;-89
2022/06/27 06:29:32;;;;;;;5.60;3.00;;;;;;;25.37;49.48;100768.34;107544;1276;106526;-90
2022/06/27 06:32:21;;;;;;;6.80;2.90;;;;;;;25.46;48.69;100765.28;107702;1276;138602;-89
2022/06/27 06:34:50;;;;;;;5.50;2.80;;;;;;;25.52;48.59;100766.38;107645;1276;107947;-89
2022/06/27 06:37:20;;;;;;;5.80;2.30;;;;;;;25.57;48.30;100773.09;107600;1277;138968;-90
2022/06/27 06:39:48;;;;;;;5.80;2.70;;;;;;;25.63;47.69;100772.81;107672;1277;92467;-89
2022/06/27 06:42:16;;;;;;;5.90;3.00;;;;;;;25.70;47.34;100771.27;107654;1277;106043;-91
2022/06/27 06:45:09;;;;;;;5.80;2.80;;;;;;;25.76;46.49;100774.27;107718;1276;137950;-90
2022/06/27 06:47:50;;;;;;;5.90;2.80;;;;;;;25.84;47.16;100773.71;107597;1276;108514;-90
2022/06/27 06:50:19;;;;;;;7.50;2.90;;;;;;;25.96;47.04;100774.23;107501;1276;138368;-90
2022/06/27 06:52:52;;;;;;;5.50;2.50;;;;;;;26.03;48.12;100769.77;107623;1276;92438;-90
2022/06/27 06:55:23;;;;;;;5.30;2.60;;;;;;;26.13;47.88;100769.84;107463;1277;138175;-90
2022/06/27 06:58:11;;;;;;;9.70;2.80;;;;;;;26.24;45.91;100763.31;107787;1276;99456;-90
2022/06/27 07:00:47;;;;;;;10.00;2.70;;;;;;;26.32;46.64;100764.55;107734;1276;108045;-91
2022/06/27 07:03:16;;;;;;;6.10;2.50;;;;;;;26.44;46.80;100764.44;107710;1276;92933;-91
2022/06/27 07:05:49;;;;;;;;;;;;;;;26.55;44.78;100762.92;107760;1277;92079;-90
2022/06/27 07:08:24;;;;;;;6.20;2.90;;;;;;;26.60;44.92;100763.05;107703;1276;124399;-89
2022/06/27 07:10:53;;;;;;;4.80;2.50;;;;;;;26.67;44.58;100758.04;107626;1276;99382;-90
2022/06/27 07:13:23;;;;;;;6.00;2.70;;;;;;;26.76;45.19;100753.98;107719;1276;138979;-91
2022/06/27 07:15:52;;;;;;;6.80;3.10;;;;;;;26.86;46.25;100753.52;107742;1276;92573;-91
2022/06/27 07:18:27;;;;;;;6.40;2.30;;;;;;;26.96;44.73;100754.23;107705;1276;92115;-92
2022/06/27 07:21:19;;;;;;;6.50;2.30;;;;;;;27.05;44.81;100751.23;107628;1276;137783;-89
2022/06/27 07:23:50;;;;;;;5.30;2.60;;;;;;;27.14;45.11;100751.00;107778;1276;98321;-91
2022/06/27 07:26:21;;;;;;;6.50;2.50;;;;;;;27.18;44.34;100751.66;107503;1276;138142;-91
2022/06/27 07:28:51;;;;;;;6.80;2.50;;;;;;;27.22;43.86;100751.94;107620;1276;92539;-91
2022/06/27 07:31:20;;;;;;;6.60;2.30;;;;;;;27.25;43.75;100749.79;107700;1276;137819;-90
2022/06/27 07:33:54;;;;;;;6.40;2.80;;;;;;;27.34;42.52;100746.08;107578;1276;108341;-91
2022/06/27 07:36:25;;;;;;;5.30;2.50;;;;;;;27.44;43.21;100748.98;107789;1276;98441;-90
2022/06/27 07:39:11;;;;;;;6.70;2.80;;;;;;;27.58;42.74;100748.48;107627;1276;136680;-90
2022/06/27 07:41:42;;;;;;;5.70;2.90;;;;;;;27.89;42.33;100743.63;107623;1276;92450;-91
2022/06/27 07:44:10;;;;;;;6.30;2.80;;;;;;;28.14;41.99;100746.95;107437;1276;138105;-90
2022/06/27 07:46:43;;;;;;;6.20;2.70;;;;;;;28.36;41.83;100746.67;107748;1276;108368;-91
2022/06/27 07:49:11;;;;;;;5.30;2.90;;;;;;;28.54;41.79;100745.67;107383;1276;138437;-92
2022/06/27 07:51:41;;;;;;;5.90;3.00;;;;;;;28.76;40.32;100747.02;107512;1276;108267;-92
2022/06/27 07:54:11;;;;;;;7.50;2.90;;;;;;;28.92;40.87;100743.02;107466;1276;92530;-92
2022/06/27 07:56:41;;;;;;;6.50;2.70;;;;;;;29.09;39.57;100747.00;103667;1277;4965320;-89
2022/06/27 07:59:32;;;;;;;6.50;3.00;;;;;;;29.13;39.13;100749.39;107747;1276;106109;-89
2022/06/27 08:02:05;;;;;;;5.60;2.80;;;;;;;29.15;40.27;100744.04;107529;1276;138890;-91
2022/06/27 08:04:36;;;;;;;6.00;2.90;;;;;;;29.28;39.83;100747.63;107687;1276;107955;-90
2022/06/27 08:07:06;;;;;;;6.60;2.80;;;;;;;29.37;39.19;100745.05;107535;1276;139533;-91
2022/06/27 08:09:38;;;;;;;7.90;2.90;;;;;;;29.43;39.03;100743.91;107743;1276;93365;-89
2022/06/27 08:12:14;;;;;;;5.70;2.50;;;;;;;29.48;38.80;100741.20;107759;1276;106081;-90
2022/06/27 08:14:44;;;;;;;6.00;3.00;;;;;;;29.47;38.47;100737.10;107421;1276;138654;-89
2022/06/27 08:17:14;;;;;;;8.00;2.60;;;;;;;29.49;38.73;100734.08;107716;1276;106673;-91
2022/06/27 08:19:43;;;;;;;6.30;2.60;;;;;;;29.55;38.10;100727.85;107490;1277;137119;-88
2022/06/27 08:22:12;;;;;;;7.00;2.60;;;;;;;29.64;38.08;100730.05;107718;1276;92452;-90
2022/06/27 08:24:42;;;;;;;6.10;2.70;;;;;;;29.74;37.81;100733.04;107758;1276;106130;-91
2022/06/27 08:27:13;;;;;;;6.20;2.60;;;;;;;29.85;38.12;100736.36;107607;1276;139547;-91
2022/06/27 08:29:49;;;;;;;6.10;2.80;;;;;;;29.89;37.05;100737.48;107690;1276;108872;-89
2022/06/27 08:32:37;;;;;;;5.70;2.60;;;;;;;29.89;37.21;100733.75;107627;1276;138064;-91
2022/06/27 08:35:09;;;;;;;5.40;2.40;;;;;;;29.93;36.74;100734.06;107790;1276;93386;-90
2022/06/27 08:37:39;;;;;;;5.70;2.40;;;;;;;30.04;37.20;100727.63;107723;1276;137218;-91
2022/06/27 08:40:14;;;;;;;6.30;2.60;;;;;;;30.20;36.44;100726.16;107957;1276;99328;-90
2022/06/27 08:42:47;;;;;;;5.90;2.70;;;;;;;30.27;37.22;100715.77;107899;1276;107750;-89
2022/06/27 08:45:20;;;;;;;5.60;2.60;;;;;;;30.38;37.38;100714.94;107870;1276;137785;-89
2022/06/27 08:47:50;;;;;;;6.60;2.50;;;;;;;30.55;36.81;100712.81;107789;1276;92014;-90
2022/06/27 08:50:19;;;;;;;5.30;2.70;;;;;;;30.69;36.32;100705.48;107584;1276;137114;-89
2022/06/27 08:52:51;;;;;;;6.20;2.70;;;;;;;30.71;36.11;100700.07;107761;1276;98405;-89
2022/06/27 08:55:59;;;;;;;7.00;2.40;;;;;;;30.88;36.01;100703.96;107371;1275;137989;-90
2022/06/27 08:58:32;;;;;;;5.30;2.30;;;;;;;30.97;34.85;100704.80;107562;1276;92652;-89
2022/06/27 09:01:04;;;;;;;6.50;2.30;;;;;;;31.12;36.07;100691.65;107465;1274;137273;-90
2022/06/27 09:03:33;;;;;;;5.00;2.10;;;;;;;31.38;35.09;100692.19;107749;1276;106004;-91
2022/06/27 09:06:08;;;;;;;5.20;2.20;;;;;;;31.32;32.08;100704.33;107548;1274;98540;-89
2022/06/27 09:09:06;;;;;;;4.40;1.70;;;;;;;31.39;32.47;100692.02;107500;1274;138175;-88
2022/06/27 09:11:43;;;;;;;4.50;1.80;;;;;;;31.50;31.68;100695.61;107567;1274;92937;-89
2022/06/27 09:14:34;;;;;;;4.60;2.00;;;;;;;31.45;31.24;100688.67;107642;1274;138010;-88
2022/06/27 09:17:05;;;;;;;5.20;1.90;;;;;;;31.51;31.21;100689.58;107767;1274;108020;-90
2022/06/27 09:19:55;;;;;;;4.50;1.90;;;;;;;31.71;31.53;100691.45;107634;1275;138350;-89
2022/06/27 09:22:28;;;;;;;4.70;1.80;;;;;;;32.02;31.09;100687.83;107529;1274;109198;-92
2022/06/27 09:25:21;;;;;;;5.90;2.30;;;;;;;32.48;30.51;100680.37;107418;1274;138959;-90
2022/06/27 09:27:52;;;;;;;4.90;2.10;;;;;;;33.32;30.01;100678.33;107557;1276;92549;-90
2022/06/27 09:30:24;;;;;;;4.20;2.00;;;;;;;34.13;29.85;100679.24;107472;1276;109080;-89
2022/06/27 09:32:58;;;;;;;6.30;2.10;;;;;;;34.85;29.07;100669.95;107366;1276;138963;-91
2022/06/27 09:35:30;;;;;;;4.70;2.20;;;;;;;35.27;27.50;100675.95;107721;1276;107807;-90
2022/06/27 09:38:04;;;;;;;7.40;2.00;;;;;;;35.16;27.18;100678.55;107452;1276;138551;-89
2022/06/27 09:40:38;;;;;;;5.20;2.10;;;;;;;34.64;27.84;100682.65;107767;1274;92097;-91
2022/06/27 09:43:29;;;;;;;4.50;2.10;;;;;;;34.09;28.04;100679.88;107611;1274;141726;-90
2022/06/27 09:45:57;;;;;;;4.90;2.40;;;;;;;33.98;28.74;100681.92;107575;1276;98534;-88
2022/06/27 09:48:27;;;;;;;4.90;2.10;;;;;;;34.13;29.35;100676.86;107475;1276;108784;-91
2022/06/27 09:50:57;;;;;;;5.30;2.40;;;;;;;33.87;29.91;100678.70;107360;1276;138538;-90
2022/06/27 09:53:27;;;;;;;4.10;2.10;;;;;;;33.76;30.08;100678.36;107540;1275;93104;-89
2022/06/27 09:56:00;;;;;;;4.50;2.10;;;;;;;33.69;31.01;100678.42;107448;1274;138571;-88
2022/06/27 09:58:30;;;;;;;5.40;2.30;;;;;;;33.63;30.34;100679.16;107794;1274;97091;-90
2022/06/27 10:01:21;;;;;;;5.00;2.20;;;;;;;34.44;30.69;100668.66;107598;1274;138323;-90
2022/06/27 10:03:50;;;;;;;7.10;2.20;;;;;;;35.28;28.31;100665.91;107388;1276;93021;-91
2022/06/27 10:06:19;;;;;;;6.00;2.50;;;;;;;36.30;28.89;100666.39;107601;1274;92816;-88
2022/06/27 10:08:51;;;;;;;5.00;2.20;;;;;;;37.15;27.07;100660.52;107618;1274;137906;-89
2022/06/27 10:11:24;;;;;;;5.70;2.10;;;;;;;37.56;25.81;100662.42;107677;1276;98310;-89
2022/06/27 10:14:11;;;;;;;5.00;2.00;;;;;;;36.95;25.94;100656.45;107589;1276;138119;-89
2022/06/27 10:16:58;;;;;;;4.80;2.30;;;;;;;36.19;26.62;100656.73;107724;1276;92495;-91
2022/06/27 10:19:28;;;;;;;4.30;1.90;;;;;;;35.26;27.60;100664.70;107370;1276;139559;-89
2022/06/27 10:21:57;;;;;;;6.10;2.40;;;;;;;34.56;28.28;100664.92;107632;1277;107454;-91
2022/06/27 10:24:29;;;;;;;5.60;2.10;;;;;;;34.39;29.01;100655.42;107730;1276;97081;-89
2022/06/27 10:27:01;;;;;;;5.10;2.30;;;;;;;34.56;28.73;100660.54;107524;1276;139319;-92
2022/06/27 10:29:41;;;;;;;8.10;2.90;;;;;;;34.46;28.76;100663.23;107569;1276;92978;-90
2022/06/27 10:32:41;;;;;;;5.40;2.70;;;;;;;34.34;28.70;100668.38;107494;1274;137192;-90
2022/06/27 10:35:12;;;;;;;5.10;2.30;;;;;;;34.26;28.29;100667.88;107548;1274;109036;-90
2022/06/27 10:37:41;;;;;;;5.90;2.50;;;;;;;34.22;28.68;100666.84;107445;1276;138714;-90
2022/06/27 10:40:19;;;;;;;5.10;1.90;;;;;;;34.30;29.25;100667.33;107716;1276;107863;-89
2022/06/27 10:42:49;;;;;;;5.00;2.00;;;;;;;34.60;29.92;100662.55;107732;1276;92631;-91
2022/06/27 10:45:20;;;;;;;4.80;2.20;;;;;;;34.86;28.17;100656.96;107508;1276;137744;-91
2022/06/27 10:47:51;;;;;;;6.00;2.40;;;;;;;34.72;29.03;100661.27;107729;1274;107454;-90
2022/06/27 10:50:23;;;;;;;6.10;2.40;;;;;;;34.43;29.30;100669.73;107385;1276;138635;-90
2022/06/27 10:53:22;;;;;;;5.10;2.00;;;;;;;34.07;29.36;100664.23;107474;1276;107835;-89
2022/06/27 10:55:52;;;;;;;5.30;2.30;;;;;;;33.38;30.16;100665.20;107716;1274;140384;-89
2022/06/27 10:58:23;;;;;;;5.00;2.50;;;;;;;32.89;30.16;100658.06;107757;1276;92793;-89
2022/06/27 11:01:12;;;;;;;7.00;2.70;;;;;;;32.51;32.07;100655.86;107382;1277;107333;-88
2022/06/27 11:03:41;;;;;;;6.00;2.40;;;;;;;32.36;32.54;100662.84;107606;1276;98452;-88
2022/06/27 11:06:13;;;;;;;6.20;2.50;;;;;;;32.24;32.36;100658.23;107719;1276;106762;-86
2022/06/27 11:08:45;;;;;;;5.50;2.40;;;;;;;32.17;32.65;100659.55;107482;1276;139170;-90
2022/06/27 11:11:23;;;;;;;5.20;2.60;;;;;;;32.10;32.01;100652.54;107563;1276;92199;-88
2022/06/27 11:13:57;;;;;;;5.60;2.10;;;;;;;32.01;31.72;100646.84;107611;1276;137929;-89
2022/06/27 11:16:28;;;;;;;7.30;2.80;;;;;;;31.89;31.04;100639.02;107611;1276;100145;-88
2022/06/27 11:19:00;;;;;;;4.80;2.30;;;;;;;31.73;31.92;100640.02;107410;1276;137373;-87
2022/06/27 11:21:38;;;;;;;4.90;2.40;;;;;;;31.65;31.60;100645.52;107573;1276;92586;-89
2022/06/27 11:24:09;;;;;;;5.70;2.40;;;;;;;31.66;31.85;100639.92;107592;1276;92606;-87
2022/06/27 11:26:45;;;;;;;6.40;2.70;;;;;;;31.64;31.55;100635.35;107408;1276;138140;-88
2022/06/27 11:32:14;;;;;;;6.40;2.80;;;;;;;31.74;32.03;100627.11;107588;1276;138402;-88
2022/06/27 11:34:50;;;;;;;7.50;2.40;;;;;;;31.87;31.26;100629.16;107481;1276;92568;-88
2022/06/27 11:37:22;;;;;;;6.50;2.40;;;;;;;31.92;31.63;100627.58;107408;1276;138760;-87
2022/06/27 11:40:08;;;;;;;6.40;2.50;;;;;;;31.96;31.25;100625.19;107760;1276;107565;-87
2022/06/27 11:42:41;;;;;;;5.00;2.40;;;;;;;31.87;31.37;100628.34;107743;1274;98409;-88
2022/06/27 11:45:13;;;;;;;6.20;2.40;;;;;;;31.83;31.93;100626.63;107439;1276;137834;-89
2022/06/27 11:47:44;;;;;;;5.90;2.30;;;;;;;31.84;31.92;100623.70;107614;1276;92573;-88
2022/06/27 11:50:18;;;;;;;7.30;2.80;;;;;;;31.88;33.11;100621.32;107437;1276;139380;-90